Terminal Aerodrome Forecast
Issued by NWS

Home | Current Version | Previous Version | Text Only | Print | Product List | Glossary On
Versions: 1 2 3 4 5 6 7 8 9 10 11 12 13
539
FTUS45 KABQ 241139
TAFFMN
TAF
KFMN 241139Z 2412/2512 09006KT P6SM SCT150
     FM241900 27011KT P6SM SCT100
      TEMPO 2422/2424 27011G21KT
     FM250000 35010G20KT P6SM VCSH BKN100
     FM250200 06007KT P6SM SCT100=

USA.gov is the U.S. government's official web portal to all federal, state and local government web resources and services.